sensor_id;sensor_type;location;lat;lon;timestamp;pressure;altitude;pressure_sealevel;temperature;humidity
16690;BME280;8458;52.220;9.884;2022-07-26T00:01:25;100294.19;;;21.39;61.60
16690;BME280;8458;52.220;9.884;2022-07-26T00:03:51;100292.81;;;21.45;61.54
16690;BME280;8458;52.220;9.884;2022-07-26T00:06:19;100296.09;;;21.47;61.63
16690;BME280;8458;52.220;9.884;2022-07-26T00:08:46;100292.09;;;21.48;61.78
16690;BME280;8458;52.220;9.884;2022-07-26T00:11:13;100294.19;;;21.39;62.27
16690;BME280;8458;52.220;9.884;2022-07-26T00:13:40;100287.97;;;21.45;62.13
16690;BME280;8458;52.220;9.884;2022-07-26T00:16:06;100292.91;;;21.48;62.05
16690;BME280;8458;52.220;9.884;2022-07-26T00:18:34;100289.59;;;21.55;61.67
16690;BME280;8458;52.220;9.884;2022-07-26T00:21:01;100286.28;;;21.65;61.46
16690;BME280;8458;52.220;9.884;2022-07-26T00:23:28;100296.19;;;21.72;61.38
16690;BME280;8458;52.220;9.884;2022-07-26T00:25:54;100294.06;;;21.81;61.34
16690;BME280;8458;52.220;9.884;2022-07-26T00:28:21;100291.03;;;21.86;61.25
16690;BME280;8458;52.220;9.884;2022-07-26T00:30:47;100303.25;;;21.90;61.04
16690;BME280;8458;52.220;9.884;2022-07-26T00:33:14;100297.06;;;21.97;60.97
16690;BME280;8458;52.220;9.884;2022-07-26T00:35:42;100305.38;;;22.06;60.49
16690;BME280;8458;52.220;9.884;2022-07-26T00:38:08;100303.16;;;22.11;60.24
16690;BME280;8458;52.220;9.884;2022-07-26T00:40:35;100301.31;;;22.15;60.09
16690;BME280;8458;52.220;9.884;2022-07-26T00:43:02;100310.34;;;22.21;59.71
16690;BME280;8458;52.220;9.884;2022-07-26T00:45:28;100302.81;;;22.25;59.40
16690;BME280;8458;52.220;9.884;2022-07-26T00:47:55;100304.25;;;22.31;58.97
16690;BME280;8458;52.220;9.884;2022-07-26T00:50:22;100305.91;;;22.32;58.12
16690;BME280;8458;52.220;9.884;2022-07-26T00:52:49;100305.22;;;22.35;57.92
16690;BME280;8458;52.220;9.884;2022-07-26T00:55:16;100309.09;;;22.31;58.23
16690;BME280;8458;52.220;9.884;2022-07-26T00:57:43;100314.03;;;22.34;58.07
16690;BME280;8458;52.220;9.884;2022-07-26T01:00:13;100312.25;;;22.17;58.28
16690;BME280;8458;52.220;9.884;2022-07-26T01:02:39;100311.53;;;21.95;58.66
16690;BME280;8458;52.220;9.884;2022-07-26T01:05:07;100310.28;;;21.72;59.04
16690;BME280;8458;52.220;9.884;2022-07-26T01:07:35;100296.72;;;21.53;59.36
16690;BME280;8458;52.220;9.884;2022-07-26T01:10:06;100296.63;;;21.49;59.58
16690;BME280;8458;52.220;9.884;2022-07-26T01:12:36;100299.84;;;21.39;59.92
16690;BME280;8458;52.220;9.884;2022-07-26T01:15:04;100295.00;;;21.39;59.82
16690;BME280;8458;52.220;9.884;2022-07-26T01:17:30;100298.78;;;21.10;60.55
16690;BME280;8458;52.220;9.884;2022-07-26T01:19:59;100301.59;;;21.10;60.60
16690;BME280;8458;52.220;9.884;2022-07-26T01:22:27;100313.50;;;21.16;60.54
16690;BME280;8458;52.220;9.884;2022-07-26T01:24:53;100305.31;;;21.23;60.37
16690;BME280;8458;52.220;9.884;2022-07-26T01:27:20;100310.72;;;21.28;60.49
16690;BME280;8458;52.220;9.884;2022-07-26T01:29:47;100311.81;;;21.36;60.23
16690;BME280;8458;52.220;9.884;2022-07-26T01:32:14;100310.88;;;21.44;60.09
16690;BME280;8458;52.220;9.884;2022-07-26T01:34:40;100318.84;;;21.51;59.87
16690;BME280;8458;52.220;9.884;2022-07-26T01:37:07;100319.56;;;21.60;59.72
16690;BME280;8458;52.220;9.884;2022-07-26T01:39:35;100316.03;;;21.63;59.71
16690;BME280;8458;52.220;9.884;2022-07-26T01:42:02;100318.66;;;21.47;59.77
16690;BME280;8458;52.220;9.884;2022-07-26T01:44:28;100321.44;;;21.35;60.31
16690;BME280;8458;52.220;9.884;2022-07-26T01:46:55;100321.88;;;21.24;60.74
16690;BME280;8458;52.220;9.884;2022-07-26T01:49:22;100314.31;;;21.16;61.06
16690;BME280;8458;52.220;9.884;2022-07-26T01:51:48;100314.16;;;21.34;60.58
16690;BME280;8458;52.220;9.884;2022-07-26T01:54:15;100322.84;;;21.07;61.27
16690;BME280;8458;52.220;9.884;2022-07-26T01:56:43;100327.69;;;21.07;61.46
16690;BME280;8458;52.220;9.884;2022-07-26T01:59:10;100328.22;;;21.00;61.89
16690;BME280;8458;52.220;9.884;2022-07-26T02:01:36;100333.78;;;21.09;61.86
16690;BME280;8458;52.220;9.884;2022-07-26T02:04:03;100327.16;;;21.26;61.17
16690;BME280;8458;52.220;9.884;2022-07-26T02:06:29;100328.25;;;21.34;61.24
16690;BME280;8458;52.220;9.884;2022-07-26T02:08:56;100322.75;;;21.37;61.17
16690;BME280;8458;52.220;9.884;2022-07-26T02:11:23;100321.78;;;21.33;61.18
16690;BME280;8458;52.220;9.884;2022-07-26T02:13:50;100329.63;;;21.27;61.44
16690;BME280;8458;52.220;9.884;2022-07-26T02:16:17;100333.50;;;21.02;62.34
16690;BME280;8458;52.220;9.884;2022-07-26T02:18:43;100338.66;;;21.00;62.54
16690;BME280;8458;52.220;9.884;2022-07-26T02:21:10;100336.47;;;20.84;62.95
16690;BME280;8458;52.220;9.884;2022-07-26T02:23:36;100334.47;;;20.85;63.13
16690;BME280;8458;52.220;9.884;2022-07-26T02:26:03;100337.16;;;20.81;63.36
16690;BME280;8458;52.220;9.884;2022-07-26T02:28:29;100336.59;;;20.67;63.80
16690;BME280;8458;52.220;9.884;2022-07-26T02:30:57;100342.22;;;20.67;64.10
16690;BME280;8458;52.220;9.884;2022-07-26T02:33:24;100344.44;;;20.52;64.78
16690;BME280;8458;52.220;9.884;2022-07-26T02:35:50;100342.63;;;20.48;64.99
16690;BME280;8458;52.220;9.884;2022-07-26T02:38:17;100347.91;;;20.49;65.06
16690;BME280;8458;52.220;9.884;2022-07-26T02:40:43;100348.59;;;20.46;65.29
16690;BME280;8458;52.220;9.884;2022-07-26T02:43:10;100350.69;;;20.67;64.55
16690;BME280;8458;52.220;9.884;2022-07-26T02:45:37;100354.44;;;20.71;64.41
16690;BME280;8458;52.220;9.884;2022-07-26T02:48:06;100357.34;;;20.83;64.06
16690;BME280;8458;52.220;9.884;2022-07-26T02:50:33;100358.53;;;20.82;64.08
16690;BME280;8458;52.220;9.884;2022-07-26T02:53:00;100361.28;;;20.70;64.56
16690;BME280;8458;52.220;9.884;2022-07-26T02:55:27;100363.09;;;20.66;64.90
16690;BME280;8458;52.220;9.884;2022-07-26T02:57:54;100352.59;;;20.45;65.85
16690;BME280;8458;52.220;9.884;2022-07-26T03:00:22;100363.88;;;20.45;65.93
16690;BME280;8458;52.220;9.884;2022-07-26T03:02:49;100357.94;;;20.38;66.41
16690;BME280;8458;52.220;9.884;2022-07-26T03:05:18;100357.78;;;20.34;66.90
16690;BME280;8458;52.220;9.884;2022-07-26T03:07:45;100366.72;;;20.36;66.68
16690;BME280;8458;52.220;9.884;2022-07-26T03:10:12;100370.28;;;20.54;66.13
16690;BME280;8458;52.220;9.884;2022-07-26T03:12:38;100363.47;;;20.55;66.17
16690;BME280;8458;52.220;9.884;2022-07-26T03:15:05;100366.78;;;20.57;65.92
16690;BME280;8458;52.220;9.884;2022-07-26T03:17:33;100359.63;;;20.60;66.01
16690;BME280;8458;52.220;9.884;2022-07-26T03:19:59;100369.09;;;20.55;65.95
16690;BME280;8458;52.220;9.884;2022-07-26T03:22:27;100376.94;;;20.50;66.45
16690;BME280;8458;52.220;9.884;2022-07-26T03:24:54;100370.22;;;20.33;67.07
16690;BME280;8458;52.220;9.884;2022-07-26T03:27:21;100374.50;;;20.31;67.41
16690;BME280;8458;52.220;9.884;2022-07-26T03:29:47;100365.91;;;20.36;67.44
16690;BME280;8458;52.220;9.884;2022-07-26T03:32:14;100376.44;;;20.09;68.62
16690;BME280;8458;52.220;9.884;2022-07-26T03:34:41;100375.13;;;20.06;69.22
16690;BME280;8458;52.220;9.884;2022-07-26T03:37:07;100369.78;;;20.14;68.97
16690;BME280;8458;52.220;9.884;2022-07-26T03:39:35;100373.91;;;20.16;68.89
16690;BME280;8458;52.220;9.884;2022-07-26T03:42:03;100374.50;;;20.31;68.28
16690;BME280;8458;52.220;9.884;2022-07-26T03:44:30;100370.34;;;20.37;68.14
16690;BME280;8458;52.220;9.884;2022-07-26T03:46:57;100367.53;;;20.37;68.05
16690;BME280;8458;52.220;9.884;2022-07-26T03:49:23;100369.72;;;20.31;68.24
16690;BME280;8458;52.220;9.884;2022-07-26T03:51:50;100365.59;;;20.29;68.53
16690;BME280;8458;52.220;9.884;2022-07-26T03:54:16;100373.59;;;20.18;68.66
16690;BME280;8458;52.220;9.884;2022-07-26T03:56:44;100372.91;;;20.21;68.95
16690;BME280;8458;52.220;9.884;2022-07-26T03:59:10;100371.59;;;20.18;69.05
16690;BME280;8458;52.220;9.884;2022-07-26T04:01:38;100368.97;;;20.13;69.21
16690;BME280;8458;52.220;9.884;2022-07-26T04:04:21;100368.28;;;20.16;69.24
16690;BME280;8458;52.220;9.884;2022-07-26T04:06:48;100359.97;;;20.29;68.94
16690;BME280;8458;52.220;9.884;2022-07-26T04:09:15;100378.88;;;20.19;69.74
16690;BME280;8458;52.220;9.884;2022-07-26T04:11:42;100375.28;;;20.10;70.11
16690;BME280;8458;52.220;9.884;2022-07-26T04:14:10;100366.84;;;20.10;70.25
16690;BME280;8458;52.220;9.884;2022-07-26T04:16:37;100371.59;;;20.18;70.15
16690;BME280;8458;52.220;9.884;2022-07-26T04:19:03;100376.41;;;20.18;70.46
16690;BME280;8458;52.220;9.884;2022-07-26T04:21:30;100379.06;;;20.14;70.68
16690;BME280;8458;52.220;9.884;2022-07-26T04:23:56;100383.72;;;20.10;71.12
16690;BME280;8458;52.220;9.884;2022-07-26T04:26:23;100379.56;;;20.16;70.88
16690;BME280;8458;52.220;9.884;2022-07-26T04:28:50;100390.13;;;20.19;71.04
16690;BME280;8458;52.220;9.884;2022-07-26T04:31:18;100385.31;;;20.20;71.17
16690;BME280;8458;52.220;9.884;2022-07-26T04:33:44;100385.38;;;20.11;71.71
16690;BME280;8458;52.220;9.884;2022-07-26T04:36:11;100390.00;;;20.16;72.03
16690;BME280;8458;52.220;9.884;2022-07-26T04:38:37;100391.13;;;20.23;71.83
16690;BME280;8458;52.220;9.884;2022-07-26T04:41:04;100390.00;;;20.16;71.97
16690;BME280;8458;52.220;9.884;2022-07-26T04:43:31;100391.28;;;20.18;72.00
16690;BME280;8458;52.220;9.884;2022-07-26T04:45:58;100382.69;;;20.23;72.00
16690;BME280;8458;52.220;9.884;2022-07-26T04:48:26;100385.19;;;20.16;72.18
16690;BME280;8458;52.220;9.884;2022-07-26T04:50:53;100398.56;;;20.19;71.95
16690;BME280;8458;52.220;9.884;2022-07-26T04:53:20;100394.94;;;20.19;72.46
16690;BME280;8458;52.220;9.884;2022-07-26T04:55:46;100386.16;;;20.20;72.59
16690;BME280;8458;52.220;9.884;2022-07-26T04:58:13;100390.44;;;20.27;72.42
16690;BME280;8458;52.220;9.884;2022-07-26T05:00:39;100382.47;;;20.29;72.08
16690;BME280;8458;52.220;9.884;2022-07-26T05:03:06;100372.09;;;20.20;72.67
16690;BME280;8458;52.220;9.884;2022-07-26T05:05:34;100373.72;;;20.21;72.65
16690;BME280;8458;52.220;9.884;2022-07-26T05:08:01;100389.66;;;20.17;72.52
16690;BME280;8458;52.220;9.884;2022-07-26T05:10:30;100389.66;;;20.17;72.76
16690;BME280;8458;52.220;9.884;2022-07-26T05:12:57;100388.47;;;20.18;72.90
16690;BME280;8458;52.220;9.884;2022-07-26T05:15:24;100384.50;;;20.19;72.51
16690;BME280;8458;52.220;9.884;2022-07-26T05:17:50;100390.13;;;20.19;72.68
16690;BME280;8458;52.220;9.884;2022-07-26T05:20:17;100383.16;;;20.26;72.29
16690;BME280;8458;52.220;9.884;2022-07-26T05:22:45;100380.53;;;20.20;72.86
16690;BME280;8458;52.220;9.884;2022-07-26T05:25:12;100374.91;;;20.20;72.34
16690;BME280;8458;52.220;9.884;2022-07-26T05:27:38;100398.25;;;20.21;72.75
16690;BME280;8458;52.220;9.884;2022-07-26T05:30:07;100389.16;;;20.15;72.78
16690;BME280;8458;52.220;9.884;2022-07-26T05:32:35;100384.19;;;20.12;72.92
16690;BME280;8458;52.220;9.884;2022-07-26T05:35:02;100389.16;;;20.15;72.86
16690;BME280;8458;52.220;9.884;2022-07-26T05:37:29;100382.25;;;20.04;73.46
16690;BME280;8458;52.220;9.884;2022-07-26T05:39:57;100390.69;;;20.04;73.25
16690;BME280;8458;52.220;9.884;2022-07-26T05:42:23;100380.97;;;19.93;74.38
16690;BME280;8458;52.220;9.884;2022-07-26T05:44:50;100387.94;;;19.86;76.47
16690;BME280;8458;52.220;9.884;2022-07-26T05:47:17;100393.25;;;19.79;77.48
16690;BME280;8458;52.220;9.884;2022-07-26T05:49:44;100397.03;;;19.83;76.99
16690;BME280;8458;52.220;9.884;2022-07-26T05:52:10;100401.00;;;19.82;77.43
16690;BME280;8458;52.220;9.884;2022-07-26T05:54:37;100401.00;;;19.82;77.01
16690;BME280;8458;52.220;9.884;2022-07-26T05:57:05;100398.84;;;19.79;77.05
16690;BME280;8458;52.220;9.884;2022-07-26T05:59:31;100398.53;;;19.72;77.31
16690;BME280;8458;52.220;9.884;2022-07-26T06:01:58;100402.50;;;19.71;77.67
16690;BME280;8458;52.220;9.884;2022-07-26T06:04:25;100397.53;;;19.77;77.07
16690;BME280;8458;52.220;9.884;2022-07-26T06:06:51;100402.31;;;19.76;76.72
16690;BME280;8458;52.220;9.884;2022-07-26T06:09:18;100402.81;;;19.78;76.67
16690;BME280;8458;52.220;9.884;2022-07-26T06:11:45;100399.50;;;19.76;76.93
16690;BME280;8458;52.220;9.884;2022-07-26T06:14:13;100403.50;;;19.66;77.16
16690;BME280;8458;52.220;9.884;2022-07-26T06:16:40;100410.13;;;19.62;77.48
16690;BME280;8458;52.220;9.884;2022-07-26T06:19:06;100409.13;;;19.58;77.71
16690;BME280;8458;52.220;9.884;2022-07-26T06:21:33;100403.50;;;19.66;77.06
16690;BME280;8458;52.220;9.884;2022-07-26T06:24:00;100418.38;;;19.67;77.79
16690;BME280;8458;52.220;9.884;2022-07-26T06:26:26;100419.03;;;19.81;76.74
16690;BME280;8458;52.220;9.884;2022-07-26T06:28:52;100413.06;;;19.74;77.50
16690;BME280;8458;52.220;9.884;2022-07-26T06:31:20;100415.75;;;19.79;76.85
16690;BME280;8458;52.220;9.884;2022-07-26T06:33:47;100426.81;;;19.84;76.68
16690;BME280;8458;52.220;9.884;2022-07-26T06:36:14;100423.66;;;19.95;76.39
16690;BME280;8458;52.220;9.884;2022-07-26T06:38:40;100427.63;;;19.94;76.44
16690;BME280;8458;52.220;9.884;2022-07-26T06:41:06;100430.78;;;19.83;76.54
16690;BME280;8458;52.220;9.884;2022-07-26T06:43:33;100433.44;;;19.88;76.91
16690;BME280;8458;52.220;9.884;2022-07-26T06:46:00;100437.06;;;19.98;76.42
16690;BME280;8458;52.220;9.884;2022-07-26T06:48:27;100435.22;;;20.02;76.02
16690;BME280;8458;52.220;9.884;2022-07-26T06:50:54;100435.69;;;20.13;76.15
16690;BME280;8458;52.220;9.884;2022-07-26T06:53:20;100436.16;;;20.23;75.48
16690;BME280;8458;52.220;9.884;2022-07-26T06:55:47;100432.84;;;20.21;75.08
16690;BME280;8458;52.220;9.884;2022-07-26T06:58:13;100436.50;;;20.22;75.47
16690;BME280;8458;52.220;9.884;2022-07-26T07:00:40;100424.91;;;20.23;75.40
16690;BME280;8458;52.220;9.884;2022-07-26T07:03:07;100437.56;;;20.38;75.68
16690;BME280;8458;52.220;9.884;2022-07-26T07:05:34;100436.41;;;20.48;74.56
16690;BME280;8458;52.220;9.884;2022-07-26T07:08:01;100433.53;;;20.57;74.00
16690;BME280;8458;52.220;9.884;2022-07-26T07:10:28;100434.16;;;20.63;74.14
16690;BME280;8458;52.220;9.884;2022-07-26T07:12:54;100426.72;;;20.67;74.03
16690;BME280;8458;52.220;9.884;2022-07-26T07:15:21;100434.31;;;20.75;73.78
16690;BME280;8458;52.220;9.884;2022-07-26T07:17:47;100432.63;;;20.74;74.00
16690;BME280;8458;52.220;9.884;2022-07-26T07:20:15;100437.59;;;20.77;73.55
16690;BME280;8458;52.220;9.884;2022-07-26T07:22:43;100434.63;;;20.73;74.22
16690;BME280;8458;52.220;9.884;2022-07-26T07:25:10;100448.19;;;20.80;74.08
16690;BME280;8458;52.220;9.884;2022-07-26T07:27:36;100439.94;;;20.75;73.65
16690;BME280;8458;52.220;9.884;2022-07-26T07:30:03;100433.06;;;20.85;73.36
16690;BME280;8458;52.220;9.884;2022-07-26T07:32:30;100437.09;;;21.05;72.35
16690;BME280;8458;52.220;9.884;2022-07-26T07:34:57;100443.16;;;21.16;71.57
16690;BME280;8458;52.220;9.884;2022-07-26T07:37:23;100436.81;;;21.19;72.01
16690;BME280;8458;52.220;9.884;2022-07-26T07:39:51;100438.97;;;21.22;70.82
16690;BME280;8458;52.220;9.884;2022-07-26T07:42:18;100445.06;;;21.03;69.82
16690;BME280;8458;52.220;9.884;2022-07-26T07:44:44;100433.19;;;21.18;70.05
16690;BME280;8458;52.220;9.884;2022-07-26T07:47:11;100425.00;;;21.25;69.73
16690;BME280;8458;52.220;9.884;2022-07-26T07:49:38;100430.69;;;21.38;69.05
16690;BME280;8458;52.220;9.884;2022-07-26T07:52:05;100440.13;;;21.42;67.49
16690;BME280;8458;52.220;9.884;2022-07-26T07:54:31;100434.81;;;21.49;67.55
16690;BME280;8458;52.220;9.884;2022-07-26T07:56:59;100441.53;;;21.57;68.11
16690;BME280;8458;52.220;9.884;2022-07-26T07:59:26;100429.28;;;21.74;67.59
16690;BME280;8458;52.220;9.884;2022-07-26T08:01:53;100433.66;;;21.83;66.86
16690;BME280;8458;52.220;9.884;2022-07-26T08:04:19;100444.84;;;21.92;66.42
16690;BME280;8458;52.220;9.884;2022-07-26T08:06:46;100440.34;;;21.79;66.62
16690;BME280;8458;52.220;9.884;2022-07-26T08:09:12;100437.28;;;21.84;67.29
16690;BME280;8458;52.220;9.884;2022-07-26T08:11:39;100435.84;;;21.78;66.55
16690;BME280;8458;52.220;9.884;2022-07-26T08:14:07;100440.38;;;21.91;67.04
16690;BME280;8458;52.220;9.884;2022-07-26T08:16:33;100443.47;;;21.98;65.42
16690;BME280;8458;52.220;9.884;2022-07-26T08:19:00;100432.22;;;22.11;64.72
16690;BME280;8458;52.220;9.884;2022-07-26T08:21:26;100439.63;;;22.15;63.24
16690;BME280;8458;52.220;9.884;2022-07-26T08:23:53;100440.19;;;22.09;64.28
16690;BME280;8458;52.220;9.884;2022-07-26T08:26:19;100434.72;;;22.25;64.19
16690;BME280;8458;52.220;9.884;2022-07-26T08:28:46;100433.81;;;22.45;63.72
16690;BME280;8458;52.220;9.884;2022-07-26T08:31:14;100438.84;;;22.40;62.16
16690;BME280;8458;52.220;9.884;2022-07-26T08:33:40;100444.28;;;22.57;61.87
16690;BME280;8458;52.220;9.884;2022-07-26T08:36:07;100450.75;;;22.33;61.08
16690;BME280;8458;52.220;9.884;2022-07-26T08:38:34;100448.34;;;22.23;60.93
16690;BME280;8458;52.220;9.884;2022-07-26T08:41:00;100441.09;;;22.34;60.37
16690;BME280;8458;52.220;9.884;2022-07-26T08:43:27;100458.66;;;22.52;60.65
16690;BME280;8458;52.220;9.884;2022-07-26T08:45:58;100453.69;;;22.49;59.73
16690;BME280;8458;52.220;9.884;2022-07-26T08:48:27;100455.38;;;22.50;60.53
16690;BME280;8458;52.220;9.884;2022-07-26T08:50:53;100453.81;;;22.65;59.84
16690;BME280;8458;52.220;9.884;2022-07-26T08:53:21;100451.84;;;22.90;60.44
16690;BME280;8458;52.220;9.884;2022-07-26T08:55:47;100463.84;;;22.87;57.81
16690;BME280;8458;52.220;9.884;2022-07-26T08:58:14;100464.91;;;22.95;57.78
16690;BME280;8458;52.220;9.884;2022-07-26T09:00:41;100462.31;;;22.89;57.57
16690;BME280;8458;52.220;9.884;2022-07-26T09:03:23;100471.84;;;22.85;57.64
16690;BME280;8458;52.220;9.884;2022-07-26T09:05:52;100464.06;;;22.82;58.29
16690;BME280;8458;52.220;9.884;2022-07-26T09:08:24;100470.41;;;22.91;57.77
16690;BME280;8458;52.220;9.884;2022-07-26T09:10:51;100485.25;;;22.76;60.28
16690;BME280;8458;52.220;9.884;2022-07-26T09:13:17;100498.31;;;22.55;63.06
16690;BME280;8458;52.220;9.884;2022-07-26T09:15:44;100497.09;;;22.32;64.94
16690;BME280;8458;52.220;9.884;2022-07-26T09:18:24;100523.53;;;22.27;66.31
16690;BME280;8458;52.220;9.884;2022-07-26T09:20:53;100525.59;;;21.84;68.37
16690;BME280;8458;52.220;9.884;2022-07-26T09:23:20;100539.38;;;21.86;68.67
16690;BME280;8458;52.220;9.884;2022-07-26T09:25:46;100548.84;;;21.60;68.28
16690;BME280;8458;52.220;9.884;2022-07-26T09:28:21;100556.66;;;21.34;68.75
16690;BME280;8458;52.220;9.884;2022-07-26T09:30:51;100563.34;;;21.20;69.20
16690;BME280;8458;52.220;9.884;2022-07-26T09:33:18;100562.22;;;20.74;70.98
16690;BME280;8458;52.220;9.884;2022-07-26T09:36:01;100572.16;;;20.80;71.10
16690;BME280;8458;52.220;9.884;2022-07-26T09:38:38;100585.59;;;20.74;70.77
16690;BME280;8458;52.220;9.884;2022-07-26T09:41:16;100586.09;;;20.68;71.23
16690;BME280;8458;52.220;9.884;2022-07-26T09:43:43;100586.41;;;20.84;70.87
16690;BME280;8458;52.220;9.884;2022-07-26T09:46:10;100592.00;;;20.92;69.66
16690;BME280;8458;52.220;9.884;2022-07-26T09:48:37;100604.13;;;20.75;70.28
16690;BME280;8458;52.220;9.884;2022-07-26T09:51:05;100602.13;;;20.85;70.25
16690;BME280;8458;52.220;9.884;2022-07-26T09:53:37;100606.94;;;20.84;70.58
16690;BME280;8458;52.220;9.884;2022-07-26T09:56:05;100609.44;;;20.77;70.50
16690;BME280;8458;52.220;9.884;2022-07-26T09:58:32;100604.66;;;20.69;70.42
16690;BME280;8458;52.220;9.884;2022-07-26T10:00:59;100595.06;;;20.70;70.45
16690;BME280;8458;52.220;9.884;2022-07-26T10:03:26;100591.06;;;20.71;70.88
16690;BME280;8458;52.220;9.884;2022-07-26T10:05:52;100593.91;;;20.62;70.83
16690;BME280;8458;52.220;9.884;2022-07-26T10:08:21;100609.94;;;20.62;71.61
16690;BME280;8458;52.220;9.884;2022-07-26T10:10:49;100608.63;;;20.68;71.24
16690;BME280;8458;52.220;9.884;2022-07-26T10:13:20;100614.91;;;20.82;72.89
16690;BME280;8458;52.220;9.884;2022-07-26T10:15:48;100616.94;;;20.73;73.84
16690;BME280;8458;52.220;9.884;2022-07-26T10:18:42;100619.22;;;20.88;73.56
16690;BME280;8458;52.220;9.884;2022-07-26T10:21:20;100635.31;;;20.79;73.02
16690;BME280;8458;52.220;9.884;2022-07-26T10:23:49;100638.47;;;20.51;73.29
16690;BME280;8458;52.220;9.884;2022-07-26T10:26:36;100643.13;;;20.21;74.03
16690;BME280;8458;52.220;9.884;2022-07-26T10:29:26;100647.28;;;20.23;74.21
16690;BME280;8458;52.220;9.884;2022-07-26T10:32:15;100652.88;;;20.32;73.22
16690;BME280;8458;52.220;9.884;2022-07-26T10:34:42;100650.88;;;20.41;73.39
16690;BME280;8458;52.220;9.884;2022-07-26T10:37:10;100649.22;;;20.58;72.81
16690;BME280;8458;52.220;9.884;2022-07-26T10:39:46;100647.75;;;20.60;73.26
16690;BME280;8458;52.220;9.884;2022-07-26T10:42:13;100650.06;;;20.41;74.41
16690;BME280;8458;52.220;9.884;2022-07-26T10:44:40;100648.41;;;20.40;75.04
16690;BME280;8458;52.220;9.884;2022-07-26T10:47:14;100644.94;;;20.34;75.53
16690;BME280;8458;52.220;9.884;2022-07-26T10:49:52;100645.09;;;20.38;76.06
16690;BME280;8458;52.220;9.884;2022-07-26T10:52:21;100651.38;;;20.52;75.58
16690;BME280;8458;52.220;9.884;2022-07-26T10:55:16;100660.00;;;20.47;75.94
16690;BME280;8458;52.220;9.884;2022-07-26T10:57:45;100660.03;;;20.30;77.12
16690;BME280;8458;52.220;9.884;2022-07-26T11:00:16;100659.00;;;20.43;76.64
16690;BME280;8458;52.220;9.884;2022-07-26T11:02:46;100662.16;;;20.50;76.90
16690;BME280;8458;52.220;9.884;2022-07-26T11:05:15;100662.66;;;20.70;76.38
16690;BME280;8458;52.220;9.884;2022-07-26T11:07:51;100663.97;;;20.72;75.64
16690;BME280;8458;52.220;9.884;2022-07-26T11:10:27;100679.38;;;20.84;74.85
16690;BME280;8458;52.220;9.884;2022-07-26T11:12:59;100669.75;;;20.85;73.85
16690;BME280;8458;52.220;9.884;2022-07-26T11:15:25;100667.25;;;20.83;73.03
16690;BME280;8458;52.220;9.884;2022-07-26T11:18:05;100669.94;;;20.88;72.36
16690;BME280;8458;52.220;9.884;2022-07-26T11:20:31;100669.94;;;20.88;73.06
16690;BME280;8458;52.220;9.884;2022-07-26T11:22:58;100671.56;;;20.89;71.79
16690;BME280;8458;52.220;9.884;2022-07-26T11:25:26;100671.75;;;20.84;72.32
16690;BME280;8458;52.220;9.884;2022-07-26T11:28:00;100678.19;;;20.93;72.52
16690;BME280;8458;52.220;9.884;2022-07-26T11:30:27;100682.16;;;21.01;72.78
16690;BME280;8458;52.220;9.884;2022-07-26T11:32:54;100683.78;;;21.11;71.96
16690;BME280;8458;52.220;9.884;2022-07-26T11:35:23;100686.97;;;20.92;73.62
16690;BME280;8458;52.220;9.884;2022-07-26T11:37:54;100695.97;;;20.76;75.73
16690;BME280;8458;52.220;9.884;2022-07-26T11:40:44;100694.94;;;20.46;75.83
16690;BME280;8458;52.220;9.884;2022-07-26T11:43:11;100706.56;;;20.53;78.30
16690;BME280;8458;52.220;9.884;2022-07-26T11:45:38;100702.06;;;20.52;80.69
16690;BME280;8458;52.220;9.884;2022-07-26T11:48:05;100705.53;;;20.23;82.09
16690;BME280;8458;52.220;9.884;2022-07-26T11:50:32;100703.06;;;20.21;81.41
16690;BME280;8458;52.220;9.884;2022-07-26T11:52:58;100701.06;;;20.13;81.13
16690;BME280;8458;52.220;9.884;2022-07-26T11:55:26;100702.91;;;20.35;81.87
16690;BME280;8458;52.220;9.884;2022-07-26T11:57:54;100703.75;;;20.36;80.98
16690;BME280;8458;52.220;9.884;2022-07-26T12:00:21;100706.06;;;20.51;78.34
16690;BME280;8458;52.220;9.884;2022-07-26T12:02:48;100718.00;;;20.48;76.23
16690;BME280;8458;52.220;9.884;2022-07-26T12:05:17;100709.03;;;20.46;74.12
16690;BME280;8458;52.220;9.884;2022-07-26T12:07:54;100707.53;;;20.49;72.95
16690;BME280;8458;52.220;9.884;2022-07-26T12:10:21;100703.59;;;20.67;72.67
16690;BME280;8458;52.220;9.884;2022-07-26T12:12:48;100705.91;;;20.74;72.10
16690;BME280;8458;52.220;9.884;2022-07-26T12:15:16;100704.88;;;20.87;71.03
16690;BME280;8458;52.220;9.884;2022-07-26T12:17:57;100706.31;;;21.11;72.73
16690;BME280;8458;52.220;9.884;2022-07-26T12:20:23;100700.47;;;21.25;70.39
16690;BME280;8458;52.220;9.884;2022-07-26T12:22:52;100695.59;;;21.43;70.21
16690;BME280;8458;52.220;9.884;2022-07-26T12:25:23;100704.34;;;21.59;69.59
16690;BME280;8458;52.220;9.884;2022-07-26T12:27:50;100699.63;;;21.72;67.58
16690;BME280;8458;52.220;9.884;2022-07-26T12:30:19;100697.09;;;21.79;67.19
16690;BME280;8458;52.220;9.884;2022-07-26T12:32:46;100693.19;;;21.62;66.29
16690;BME280;8458;52.220;9.884;2022-07-26T12:35:16;100702.28;;;21.77;65.06
16690;BME280;8458;52.220;9.884;2022-07-26T12:37:50;100699.00;;;21.96;63.14
16690;BME280;8458;52.220;9.884;2022-07-26T12:40:19;100686.53;;;22.18;60.92
16690;BME280;8458;52.220;9.884;2022-07-26T12:42:53;100692.47;;;22.04;59.35
16690;BME280;8458;52.220;9.884;2022-07-26T12:45:25;100692.09;;;22.35;60.09
16690;BME280;8458;52.220;9.884;2022-07-26T12:47:54;100693.88;;;22.61;59.93
16690;BME280;8458;52.220;9.884;2022-07-26T12:50:21;100684.50;;;22.48;58.93
16690;BME280;8458;52.220;9.884;2022-07-26T12:52:49;100681.97;;;22.34;60.22
16690;BME280;8458;52.220;9.884;2022-07-26T12:55:18;100688.63;;;22.30;60.65
16690;BME280;8458;52.220;9.884;2022-07-26T12:57:47;100698.06;;;22.13;61.07
16690;BME280;8458;52.220;9.884;2022-07-26T13:00:14;100702.59;;;22.05;61.88
16690;BME280;8458;52.220;9.884;2022-07-26T13:02:44;100704.59;;;22.05;61.82
16690;BME280;8458;52.220;9.884;2022-07-26T13:05:11;100702.06;;;21.82;62.73